»·PEaware :: N205AF KEEO-KSAA

N205AF :: KEEO-KSAA

FLIGHT INFORMATION

Flight Status: Arrived
Operator: Privately registered:
United States
More flights under this callsign
Pilot: Bryan H. (16252)
Aircraft: MOONEY M-20 201 202 205 220 ATS MSE
(M20P)
More flights by this aircraft type
Origin: KEEO Meeker
United States
Destination: KSAA Shively
United States
More flights between these airports :: More routes between these airports
Route: VFR EKR CKW
File this flight plan on PilotEdge
Remarks: STREAMING ON TWITCH SIMPILOT13
Altitude:
(Current/Filed)
9,500ft
Speed:
(Current/Filed)
160kts
Departed: 14-Apr-18 11:37 AM
Arrived: 14-Apr-18 12:24 PM
Distance/Time
Traveled:
97nm/0:47
Distance/Time
To Go:
Arrived

Flight Plot

Page will automatically refresh every two minutes.

Flight plan parsing failed; only flown route is shown


Map Options




Map Legend


Flown Route
Filed Route
Departure Airport
Arrival Airport
Navaid (VOR, NDB)
Fix

Horizontal Profiles

Position Reports

Time Latitude Longitude Heading Altitude Ground
Speed
14-Apr-18 11:29 40.041059 -107.891913 127 6386ft 0kts
14-Apr-18 11:30 40.041059 -107.891913 127 6386ft 0kts
14-Apr-18 11:31 40.041059 -107.891913 127 6386ft 0kts
14-Apr-18 11:32 40.042065 -107.893209 13 6386ft 10kts
14-Apr-18 11:33 40.046718 -107.888191 39 6386ft 29kts
14-Apr-18 11:34 40.053162 -107.881228 39 6386ft 30kts
14-Apr-18 11:35 40.055451 -107.878777 223 6386ft 0kts
14-Apr-18 11:36 40.054248 -107.880081 218 6386ft 50kts
14-Apr-18 11:37 40.035166 -107.901559 226 6844ft 96kts
14-Apr-18 11:38 40.024273 -107.882880 42 7479ft 102kts
14-Apr-18 11:39 40.047496 -107.864322 342 8316ft 102kts
14-Apr-18 11:40 40.071174 -107.886684 320 9149ft 106kts
14-Apr-18 11:41 40.095052 -107.915738 318 9563ft 138kts
14-Apr-18 11:42 40.136022 -107.912478 10 9547ft 159kts
14-Apr-18 11:43 40.179594 -107.900957 8 9546ft 162kts
14-Apr-18 11:44 40.223916 -107.890182 8 9544ft 163kts
14-Apr-18 11:45 40.268446 -107.879760 7 9541ft 164kts
14-Apr-18 11:46 40.312673 -107.869549 7 9537ft 164kts
14-Apr-18 11:47 40.357401 -107.859268 7 9535ft 164kts
14-Apr-18 11:48 40.402297 -107.848958 7 9535ft 164kts
14-Apr-18 11:49 40.446432 -107.838814 6 9534ft 164kts
14-Apr-18 11:50 40.491129 -107.828533 7 9533ft 164kts
14-Apr-18 11:51 40.535829 -107.818235 6 9531ft 164kts
14-Apr-18 11:52 40.580615 -107.807904 6 9529ft 164kts
14-Apr-18 11:53 40.625490 -107.797541 6 9528ft 164kts
14-Apr-18 11:54 40.669776 -107.787301 6 9525ft 164kts
14-Apr-18 11:55 40.714833 -107.776865 6 9520ft 165kts
14-Apr-18 11:56 40.760364 -107.766305 6 9514ft 167kts
14-Apr-18 11:57 40.806284 -107.755639 6 9510ft 169kts
14-Apr-18 11:58 40.852430 -107.744903 6 9509ft 169kts
14-Apr-18 11:59 40.898662 -107.734133 6 9509ft 170kts
14-Apr-18 12:00 40.942385 -107.711041 22 9509ft 173kts
14-Apr-18 12:01 40.984123 -107.683273 22 9554ft 170kts
14-Apr-18 12:02 41.026407 -107.655309 22 9583ft 172kts
14-Apr-18 12:03 41.069474 -107.627178 22 9583ft 174kts
14-Apr-18 12:04 41.111437 -107.600127 22 9583ft 175kts
14-Apr-18 12:05 41.155098 -107.572260 22 9583ft 176kts
14-Apr-18 12:06 41.197988 -107.544003 23 9562ft 175kts
14-Apr-18 12:07 41.234084 -107.519939 22 9565ft 174kts
14-Apr-18 12:08 41.275876 -107.488284 27 9566ft 175kts
14-Apr-18 12:09 41.317114 -107.454485 28 9566ft 175kts
14-Apr-18 12:10 41.352486 -107.410246 25 9409ft 181kts
14-Apr-18 12:11 41.386679 -107.362867 55 9549ft 175kts
14-Apr-18 12:12 41.413277 -107.296119 59 9531ft 178kts
14-Apr-18 12:13 41.434234 -107.236170 63 9520ft 179kts
14-Apr-18 12:14 41.444383 -107.181963 75 9518ft 181kts
14-Apr-18 12:15 41.454436 -107.116376 76 9518ft 181kts
14-Apr-18 12:16 41.464672 -107.050548 75 9518ft 181kts
14-Apr-18 12:17 41.473089 -106.983982 88 9484ft 185kts
14-Apr-18 12:18 41.454773 -106.918276 116 9206ft 197kts
14-Apr-18 12:19 41.420119 -106.862934 130 8384ft 200kts
14-Apr-18 12:20 41.430052 -106.806051 63 7934ft 139kts
14-Apr-18 12:21 41.445821 -106.776573 330 7195ft 80kts
14-Apr-18 12:22 41.453936 -106.796389 251 7102ft 79kts
14-Apr-18 12:23 41.445879 -106.820487 242 6897ft 34kts
14-Apr-18 12:24 41.445639 -106.817691 58 6889ft 39kts
14-Apr-18 12:25 41.445080 -106.810762 108 6864ft 0kts
14-Apr-18 12:26 41.445235 -106.809480 272 6865ft 0kts
14-Apr-18 12:27 41.445235 -106.809481 273 6865ft 0kts
14-Apr-18 12:28 41.445235 -106.809481 273 6865ft 0kts
14-Apr-18 12:29 41.445235 -106.809481 273 6865ft 0kts
14-Apr-18 12:30 41.445235 -106.809481 273 6865ft 0kts
14-Apr-18 12:31 41.445235 -106.809481 273 6865ft 0kts
14-Apr-18 12:32 41.445235 -106.809481 273 6865ft 0kts
14-Apr-18 12:33 41.445235 -106.809481 273 6865ft 0kts

Navigation Log

Ident Type
Flight plan parsing failed, navigation log unavailable